Time;durP1;ratioP1;P1;durP2;ratioP2;P2;SDS_P1;SDS_P2;PMS_P1;PMS_P2;Temp;Humidity;BMP_temperature;BMP_pressure;BME280_temperature;BME280_humidity;BME280_pressure;Samples;Min_cycle;Max_cycle;Signal;HPM_P1;HPM_P2
2021/03/06 00:01:08;;;;;;;0.32;0.10;;;6.10;99.90;;;5.45;73.70;101390.59;4991802;28;20042;-45
2021/03/06 00:03:34;;;;;;;2.92;0.10;;;6.10;99.90;;;5.39;73.60;101410.78;4991793;28;20421;-47
2021/03/06 00:06:00;;;;;;;0.45;0.10;;;6.00;99.90;;;5.36;73.41;101408.38;4991664;28;20121;-49
2021/03/06 00:08:26;;;;;;;0.77;0.20;;;6.00;99.90;;;5.31;74.64;101413.81;4991670;28;20034;-45
2021/03/06 00:10:55;;;;;;;0.10;0.00;;;5.90;99.90;;;5.64;64.24;101418.78;4991609;28;20076;-44
2021/03/06 00:13:21;;;;;;;0.55;0.10;;;6.00;99.90;;;5.59;67.93;101421.66;4991833;28;20046;-45
2021/03/06 00:15:47;;;;;;;0.20;0.00;;;6.10;99.90;;;5.44;69.67;101421.69;4991900;28;20049;-46
2021/03/06 00:18:13;;;;;;;0.55;0.10;;;6.10;99.90;;;5.21;72.00;101423.81;4991663;28;20562;-45
2021/03/06 00:20:39;;;;;;;0.35;0.10;;;5.90;99.90;;;5.05;73.01;101424.78;4991490;28;20509;-46
2021/03/06 00:23:05;;;;;;;0.60;0.17;;;5.80;99.90;;;4.93;74.23;101431.47;4991425;28;20094;-43
2021/03/06 00:25:31;;;;;;;2.00;0.20;;;5.60;99.90;;;4.89;75.53;101432.56;4991134;28;20042;-44
2021/03/06 00:27:57;;;;;;;0.95;0.20;;;5.60;99.90;;;4.81;74.92;101426.97;4991386;28;20128;-46
2021/03/06 00:30:24;;;;;;;0.47;0.20;;;5.50;99.90;;;4.78;75.55;101440.88;4991369;28;20034;-45
2021/03/06 00:32:50;;;;;;;0.52;0.20;;;5.40;99.90;;;4.69;75.68;101438.00;4990901;28;20162;-45
2021/03/06 00:35:16;;;;;;;0.57;0.20;;;5.30;99.90;;;4.66;76.04;101446.75;4991359;28;20395;-47
2021/03/06 00:37:41;;;;;;;0.30;0.17;;;5.30;99.90;;;4.58;76.88;101438.56;4991424;28;20243;-49
2021/03/06 00:40:10;;;;;;;0.60;0.10;;;5.30;99.90;;;4.52;76.34;101459.53;4991050;28;20394;-46
2021/03/06 00:42:37;;;;;;;0.75;0.20;;;5.20;99.90;;;4.47;76.03;101454.63;4990843;28;20089;-46
2021/03/06 00:45:05;;;;;;;1.30;0.20;;;5.10;99.90;;;4.46;76.07;101470.19;4990941;28;20546;-46
2021/03/06 00:47:31;;;;;;;0.43;0.22;;;5.10;99.90;;;4.43;75.45;101445.38;4991093;28;20464;-44
2021/03/06 00:49:57;;;;;;;1.10;0.20;;;5.10;99.90;;;4.53;74.68;101451.72;4991104;28;20117;-44
2021/03/06 00:52:23;;;;;;;0.50;0.30;;;5.10;99.90;;;4.58;73.83;101459.22;4990933;28;20541;-51
2021/03/06 00:54:49;;;;;;;1.00;0.20;;;5.20;99.90;;;4.47;73.83;101470.09;4990762;28;20034;-45
2021/03/06 00:57:15;;;;;;;0.38;0.20;;;5.10;99.90;;;4.41;73.91;101454.09;4972757;28;20042;-45
2021/03/06 00:59:41;;;;;;;0.85;0.17;;;5.00;99.90;;;4.34;74.38;101469.91;4990729;28;20433;-47
2021/03/06 01:02:07;;;;;;;0.50;0.20;;;5.00;99.90;;;4.25;74.80;101472.97;4990990;28;20034;-50
2021/03/06 01:04:33;;;;;;;0.60;0.30;;;4.90;99.90;;;4.29;74.24;101474.47;4990704;28;20382;-45
2021/03/06 01:06:59;;;;;;;1.48;0.35;;;4.90;99.90;;;4.21;74.68;101488.72;4990635;28;20042;-43
2021/03/06 01:09:25;;;;;;;1.38;0.30;;;4.80;99.90;;;4.22;73.15;101469.75;4990396;28;20077;-50
2021/03/06 01:11:51;;;;;;;0.57;0.30;;;4.80;99.90;;;4.21;74.63;101481.81;4972817;28;20038;-43
2021/03/06 01:14:16;;;;;;;0.90;0.30;;;4.80;99.90;;;4.43;69.90;101476.34;4990481;28;20109;-43
2021/03/06 01:16:42;;;;;;;0.95;0.20;;;5.00;99.90;;;4.31;69.74;101488.13;4990595;28;20161;-47
2021/03/06 01:19:08;;;;;;;0.80;0.30;;;4.90;99.90;;;4.28;70.69;101490.88;4990538;28;20545;-48
2021/03/06 01:21:34;;;;;;;0.95;0.30;;;4.80;99.90;;;4.32;70.71;101476.91;4990439;28;20057;-47
2021/03/06 01:24:00;;;;;;;1.00;0.30;;;4.90;99.90;;;4.15;71.00;101481.28;4990182;28;20042;-50
2021/03/06 01:26:27;;;;;;;1.30;0.50;;;4.80;99.90;;;4.06;72.43;101492.06;4990448;28;20057;-49
2021/03/06 01:28:53;;;;;;;0.65;0.40;;;4.70;99.90;;;4.06;72.73;101476.59;4990208;28;20042;-47
2021/03/06 01:31:19;;;;;;;0.70;0.32;;;4.70;99.90;;;4.11;70.99;101496.06;4990115;28;20077;-46
2021/03/06 01:33:45;;;;;;;1.02;0.40;;;4.70;99.90;;;4.08;71.96;101496.22;4990173;28;20035;-44
2021/03/06 01:36:11;;;;;;;1.00;0.40;;;4.70;99.90;;;4.03;72.03;101505.94;4990053;28;20030;-46
2021/03/06 01:38:36;;;;;;;1.38;0.40;;;4.60;99.90;;;3.99;71.71;101514.75;4989813;28;20038;-45
2021/03/06 01:41:02;;;;;;;1.42;0.50;;;4.60;99.90;;;3.97;71.52;101503.66;4990118;28;20498;-49
2021/03/06 01:43:28;;;;;;;1.05;0.45;;;4.60;99.90;;;3.88;73.29;101498.97;4989594;28;20133;-50
2021/03/06 01:45:54;;;;;;;2.40;1.20;;;4.50;99.90;;;3.88;71.36;101504.13;4989187;28;20057;-48
2021/03/06 01:48:20;;;;;;;0.55;0.35;;;4.50;99.90;;;3.91;71.42;101499.66;4989907;28;20149;-44
2021/03/06 01:50:46;;;;;;;1.05;0.52;;;4.50;99.90;;;3.89;70.68;101505.78;4989808;28;20376;-45
2021/03/06 01:53:13;;;;;;;1.30;0.60;;;4.50;99.90;;;3.86;71.37;101506.78;4989963;28;20038;-45
2021/03/06 01:55:44;;;;;;;2.92;1.02;;;4.50;99.90;;;3.81;71.38;101502.75;4972304;28;20049;-47
2021/03/06 01:58:10;;;;;;;1.67;0.75;;;4.50;99.90;;;3.85;70.21;101512.00;4989783;28;20030;-48
2021/03/06 02:00:37;;;;;;;1.98;0.77;;;4.50;99.90;;;3.88;69.09;101512.69;4989836;28;20053;-48
2021/03/06 02:03:03;;;;;;;1.85;0.63;;;4.40;99.90;;;3.99;67.74;101520.72;4989559;28;20054;-47
2021/03/06 02:05:30;;;;;;;1.25;0.60;;;4.50;99.90;;;4.06;66.86;101512.69;4989454;28;20033;-49
2021/03/06 02:07:56;;;;;;;3.40;0.85;;;4.60;99.90;;;4.05;65.07;101505.88;4989587;28;20069;-47
2021/03/06 02:10:30;;;;;;;2.10;1.33;;;4.60;99.90;;;4.22;62.02;101509.25;4989561;28;20478;-48
2021/03/06 02:13:35;;;;;;;1.63;1.00;;;4.70;99.20;;;4.26;60.88;101507.34;4989745;28;20049;-47
2021/03/06 02:16:15;;;;;;;1.42;0.95;;;4.80;99.90;;;4.45;57.38;101502.06;4989238;28;20097;-43
2021/03/06 02:19:00;;;;;;;1.55;1.10;;;4.90;92.40;;;4.46;59.35;101516.63;4973417;28;20043;-46
2021/03/06 02:22:03;;;;;;;2.35;1.13;;;4.90;94.60;;;4.39;60.70;101515.28;4989402;28;20399;-49
2021/03/06 02:24:56;;;;;;;1.38;1.00;;;5.00;96.60;;;4.25;63.17;101513.44;4974130;28;20116;-43
2021/03/06 02:28:03;;;;;;;1.73;1.15;;;4.90;99.30;;;4.19;62.41;101506.84;4989343;28;20450;-47
2021/03/06 02:30:31;;;;;;;2.10;0.80;;;4.80;99.70;;;4.14;62.81;101518.31;4972827;28;20052;-46
2021/03/06 02:33:01;;;;;;;2.58;1.52;;;4.70;99.20;;;4.09;62.65;101504.81;4972092;28;20026;-48
2021/03/06 02:35:32;;;;;;;2.67;1.40;;;4.70;99.20;;;4.18;62.06;101510.34;4988980;28;20145;-53
2021/03/06 02:38:09;;;;;;;2.00;0.93;;;4.70;98.70;;;4.24;58.02;101506.59;4989139;28;20042;-50
2021/03/06 02:43:11;;;;;;;2.88;1.27;;;4.80;93.70;;;4.19;61.23;101514.56;4948867;23;20062;-51
2021/03/06 02:45:38;;;;;;;3.17;1.20;;;4.80;95.40;;;4.20;61.07;101536.88;4952115;28;20042;-43
2021/03/06 02:48:06;;;;;;;2.83;1.70;;;4.80;95.40;;;4.16;61.99;101527.63;4969543;28;20092;-49
2021/03/06 02:50:32;;;;;;;2.95;1.25;;;4.80;96.80;;;4.07;62.91;101540.16;4969676;28;20038;-53
2021/03/06 02:52:58;;;;;;;2.78;1.50;;;4.70;98.50;;;4.05;62.13;101537.66;4969477;28;20215;-43
2021/03/06 02:55:24;;;;;;;2.38;1.63;;;4.70;97.40;;;4.11;60.22;101541.66;4969574;28;20077;-44
2021/03/06 02:58:13;;;;;;;2.85;1.77;;;4.70;95.10;;;4.08;62.01;101544.41;4973600;28;20035;-45
2021/03/06 03:01:01;;;;;;;3.05;1.83;;;4.70;96.90;;;3.99;62.08;101527.63;4956524;28;20085;-43
2021/03/06 03:04:12;;;;;;;1.95;1.17;;;4.60;98.70;;;3.95;61.36;101557.06;4973436;28;20050;-43
2021/03/06 03:06:42;;;;;;;1.85;1.38;;;4.60;97.80;;;3.93;62.96;101559.72;4913226;29;20036;-45
2021/03/06 03:09:20;;;;;;;3.65;1.50;;;4.60;98.30;;;3.88;63.27;101573.72;4913031;29;20040;-43
2021/03/06 03:12:03;;;;;;;2.22;1.50;;;4.50;99.10;;;3.89;63.44;101575.41;4913229;29;20505;-45
2021/03/06 03:14:37;;;;;;;2.75;1.58;;;4.50;98.90;;;3.84;63.85;101585.09;4913167;29;20048;-44
2021/03/06 03:17:13;;;;;;;2.05;1.65;;;4.50;99.30;;;3.80;64.42;101584.41;4913138;29;20071;-48
2021/03/06 03:20:11;;;;;;;2.67;1.83;;;4.40;99.90;;;3.81;63.62;101585.25;4913142;29;20051;-45
2021/03/06 03:22:44;;;;;;;3.83;1.92;;;4.40;99.90;;;3.73;64.10;101597.69;4912841;29;20287;-43
2021/03/06 03:25:13;;;;;;;2.83;1.83;;;4.40;99.90;;;3.71;64.02;101597.78;4912712;29;20071;-43
2021/03/06 03:27:41;;;;;;;3.50;1.75;;;4.30;99.90;;;3.72;63.30;101601.19;4912784;29;20452;-44
2021/03/06 03:30:18;;;;;;;2.50;1.42;;;4.30;99.80;;;3.81;62.16;101611.88;4912815;29;20044;-46
2021/03/06 03:32:50;;;;;;;3.83;1.83;;;4.30;98.70;;;3.98;59.99;101606.75;4912845;29;20044;-45
2021/03/06 03:35:20;;;;;;;4.90;1.42;;;4.50;94.10;;;3.98;59.51;101611.06;4912803;29;20048;-45
2021/03/06 03:37:48;;;;;;;1.65;1.20;;;4.60;93.30;;;4.09;57.96;101621.69;4912713;29;20564;-44
2021/03/06 03:40:17;;;;;;;4.10;1.85;;;4.60;90.50;;;4.06;58.51;101621.00;4936463;28;20039;-45
2021/03/06 03:42:44;;;;;;;4.60;1.58;;;4.60;91.50;;;4.01;59.36;101631.53;4972450;28;20051;-45
2021/03/06 03:45:15;;;;;;;2.40;1.38;;;4.60;92.40;;;3.99;58.56;101626.47;4955210;28;20030;-43
2021/03/06 03:47:43;;;;;;;5.13;1.60;;;4.60;90.60;;;3.91;58.99;101620.84;4972683;28;20035;-49
2021/03/06 03:50:14;;;;;;;2.78;1.50;;;4.50;90.80;;;3.89;58.23;101630.38;4955307;28;20117;-44
2021/03/06 03:52:45;;;;;;;3.75;1.55;;;4.50;91.40;;;3.84;59.18;101631.50;4955255;28;20046;-44
2021/03/06 03:55:12;;;;;;;1.75;1.13;;;4.50;91.40;;;3.90;55.59;101636.38;4972333;28;20051;-45
2021/03/06 03:57:39;;;;;;;2.78;1.05;;;4.50;85.10;;;3.81;57.81;101631.66;4955153;28;20116;-44
2021/03/06 04:00:11;;;;;;;2.45;0.60;;;4.50;90.00;;;3.77;56.18;101627.56;4972542;28;20118;-47
2021/03/06 04:02:38;;;;;;;1.63;0.90;;;4.40;88.70;;;3.76;57.06;101637.06;4972305;28;20054;-49
2021/03/06 04:05:07;;;;;;;2.72;1.30;;;4.40;88.10;;;3.73;57.99;101626.06;4972275;28;20117;-44
2021/03/06 04:07:47;;;;;;;2.35;1.55;;;4.30;90.30;;;3.68;59.85;101646.88;4971571;28;20045;-45
2021/03/06 04:10:17;;;;;;;4.07;1.80;;;4.30;92.70;;;3.52;60.80;101636.44;4972166;28;20496;-46
2021/03/06 04:12:44;;;;;;;5.20;1.90;;;4.20;93.60;;;3.40;61.92;101641.31;4972213;28;20166;-43
2021/03/06 04:15:12;;;;;;;2.33;1.65;;;4.10;95.60;;;3.39;61.71;101653.38;4972254;28;20027;-45
2021/03/06 04:17:39;;;;;;;13.18;6.57;;;4.00;95.60;;;3.32;61.84;101645.06;4972112;28;20464;-46
2021/03/06 04:20:08;;;;;;;19.92;11.65;;;4.00;95.60;;;3.26;61.93;101665.97;4971967;28;20066;-42
2021/03/06 04:22:35;;;;;;;4.70;3.30;;;3.90;95.60;;;3.17;61.98;101660.41;4972309;28;20043;-44
2021/03/06 04:25:01;;;;;;;4.95;2.45;;;3.80;95.90;;;3.14;61.94;101663.13;4972116;28;20050;-46
2021/03/06 04:27:27;;;;;;;2.55;1.55;;;3.80;95.70;;;3.08;61.91;101661.63;4971854;28;20036;-42
2021/03/06 04:29:53;;;;;;;4.85;2.20;;;3.80;95.70;;;3.03;62.48;101683.34;4972564;28;20038;-45
2021/03/06 04:32:19;;;;;;;3.47;2.15;;;3.70;96.60;;;2.96;62.83;101677.63;4972039;28;20042;-42
2021/03/06 04:34:45;;;;;;;3.33;2.08;;;3.60;97.30;;;2.82;63.59;101698.81;4972542;28;20065;-44
2021/03/06 04:37:12;;;;;;;3.35;1.55;;;3.50;97.90;;;2.87;62.25;101694.28;4982169;28;20450;-45
2021/03/06 04:39:38;;;;;;;4.07;1.52;;;3.50;96.70;;;2.99;60.17;101713.53;4971910;28;20026;-44
2021/03/06 04:42:04;;;;;;;3.83;1.52;;;3.60;94.30;;;2.96;60.73;101711.91;4986826;28;20104;-44
2021/03/06 04:44:30;;;;;;;2.92;1.48;;;3.60;94.50;;;2.94;61.00;101710.31;4990929;28;20038;-44
2021/03/06 04:46:56;;;;;;;2.95;1.20;;;3.60;95.00;;;2.97;59.20;101693.00;4990955;28;20290;-43
2021/03/06 04:49:22;;;;;;;3.22;1.55;;;3.50;92.10;;;3.04;59.13;101715.91;4991137;28;20166;-46
2021/03/06 04:51:49;;;;;;;3.53;1.58;;;3.60;92.40;;;2.92;60.05;101697.50;4991174;28;20058;-43
2021/03/06 04:54:16;;;;;;;1.98;1.08;;;3.50;93.80;;;2.94;57.38;101721.44;4975196;28;20047;-41
2021/03/06 04:56:42;;;;;;;1.90;1.00;;;3.50;90.50;;;3.03;55.58;101701.38;4971574;28;20045;-44
2021/03/06 04:59:07;;;;;;;2.55;1.27;;;3.60;85.50;;;2.94;57.16;101705.16;4971438;28;20035;-46
2021/03/06 05:01:33;;;;;;;1.45;0.77;;;3.50;87.80;;;2.83;58.14;101726.25;4971194;28;20122;-45
2021/03/06 05:03:59;;;;;;;1.77;1.02;;;3.40;90.10;;;2.75;58.57;101732.59;4971228;28;20034;-43
2021/03/06 05:06:25;;;;;;;3.00;1.33;;;3.40;90.60;;;2.71;58.96;101729.31;4971401;28;20399;-42
2021/03/06 05:08:51;;;;;;;3.60;1.45;;;3.30;91.30;;;2.67;59.29;101732.91;4971173;28;20050;-42
2021/03/06 05:11:17;;;;;;;2.85;1.20;;;3.30;92.00;;;2.60;59.40;101732.31;4971159;28;20039;-42
2021/03/06 05:13:43;;;;;;;2.67;1.15;;;3.20;91.60;;;2.74;56.61;101734.34;4971010;28;20043;-42
2021/03/06 05:16:09;;;;;;;2.47;1.13;;;3.30;86.70;;;2.81;56.43;101738.34;4971081;28;20039;-47
2021/03/06 05:18:35;;;;;;;2.35;1.00;;;3.40;86.40;;;2.77;56.69;101739.34;4970753;28;20426;-46
2021/03/06 05:21:01;;;;;;;3.25;1.30;;;3.30;84.70;;;2.70;57.24;101742.25;4970843;28;20027;-47
2021/03/06 05:23:27;;;;;;;2.38;1.00;;;3.30;87.60;;;2.57;58.17;101739.34;4970967;28;20569;-43
2021/03/06 05:25:54;;;;;;;3.38;1.02;;;3.20;90.00;;;2.48;58.60;101740.53;4970551;28;20031;-45
2021/03/06 05:28:22;;;;;;;3.50;0.82;;;3.10;90.10;;;2.42;58.93;101747.66;4970755;28;20027;-44
2021/03/06 05:30:49;;;;;;;1.88;0.77;;;3.00;90.50;;;2.35;59.53;101748.81;4986303;28;20540;-47
2021/03/06 05:33:16;;;;;;;3.30;0.98;;;3.00;91.10;;;2.28;60.08;101753.38;4990435;28;20038;-44
2021/03/06 05:35:42;;;;;;;2.50;1.15;;;2.90;92.00;;;2.13;61.03;101762.50;4988677;28;20155;-46
2021/03/06 05:38:10;;;;;;;2.80;1.65;;;2.80;93.40;;;2.05;61.97;101743.97;4971993;28;20065;-43
2021/03/06 05:40:47;;;;;;;2.33;0.98;;;2.70;94.70;;;2.08;61.10;101754.13;4982789;28;20033;-42
2021/03/06 05:43:14;;;;;;;1.75;0.93;;;2.70;93.70;;;2.06;61.68;101771.34;4968571;28;20494;-44
2021/03/06 05:45:46;;;;;;;1.90;1.00;;;2.70;94.70;;;2.03;61.59;101761.19;4976776;28;20459;-43
2021/03/06 05:48:13;;;;;;;2.17;0.88;;;2.70;94.50;;;1.99;62.13;101775.03;4953485;28;20045;-43
2021/03/06 05:50:40;;;;;;;1.98;0.75;;;2.70;95.10;;;1.96;61.50;101767.44;4970607;28;20038;-43
2021/03/06 05:53:11;;;;;;;1.40;0.82;;;2.60;94.40;;;1.95;62.67;101783.75;4970273;28;20042;-43
2021/03/06 05:55:40;;;;;;;2.63;1.35;;;2.60;96.50;;;1.90;63.21;101789.06;4971445;28;20046;-44
2021/03/06 05:58:06;;;;;;;2.70;1.88;;;2.60;97.80;;;1.88;63.42;101764.34;4971004;28;20112;-42
2021/03/06 06:00:33;;;;;;;2.28;1.33;;;2.60;97.40;;;1.79;63.94;101775.81;4970223;28;20073;-47
2021/03/06 06:03:00;;;;;;;3.38;1.15;;;2.50;98.40;;;1.86;63.84;101786.69;4960287;28;20062;-49
2021/03/06 06:05:26;;;;;;;4.20;1.52;;;2.50;98.90;;;2.03;63.90;101792.03;4989446;28;20097;-46
2021/03/06 06:07:55;;;;;;;2.65;1.05;;;2.60;99.90;;;2.08;63.32;101797.00;4989572;28;20141;-43
2021/03/06 06:10:23;;;;;;;1.55;0.80;;;2.70;98.80;;;2.12;62.73;101799.41;4989400;28;20034;-47
2021/03/06 06:12:49;;;;;;;3.22;1.17;;;2.70;97.40;;;2.15;62.65;101785.59;4989338;28;20035;-44
2021/03/06 06:15:19;;;;;;;2.42;1.10;;;2.80;97.60;;;2.24;62.96;101804.09;4963712;28;20140;-43
2021/03/06 06:17:45;;;;;;;3.17;1.58;;;2.80;98.40;;;2.35;62.92;101810.56;4970093;28;20066;-43
2021/03/06 06:20:13;;;;;;;2.80;1.30;;;3.00;98.60;;;2.42;62.96;101811.97;4970309;28;20039;-43
2021/03/06 06:22:39;;;;;;;2.17;0.98;;;3.00;98.60;;;2.49;62.89;101814.25;4952660;28;20490;-43
2021/03/06 06:25:05;;;;;;;2.78;1.40;;;3.10;97.80;;;2.61;62.23;101823.22;4969734;28;20045;-47
2021/03/06 06:27:33;;;;;;;2.40;1.20;;;3.20;97.60;;;2.66;61.36;101824.72;4969700;28;20035;-46
2021/03/06 06:30:02;;;;;;;3.78;1.10;;;3.30;96.00;;;2.74;60.03;101827.00;4969745;28;20043;-45
2021/03/06 06:32:42;;;;;;;2.97;1.10;;;3.30;94.00;;;2.91;58.43;101834.84;4970491;28;20035;-47
2021/03/06 06:35:12;;;;;;;2.85;1.45;;;3.50;94.30;;;3.09;59.45;101842.72;4989216;28;20042;-44
2021/03/06 06:37:38;;;;;;;3.80;1.92;;;3.60;93.60;;;3.26;59.14;101843.72;4988861;28;20045;-44
2021/03/06 06:40:23;;;;;;;2.53;1.00;;;3.80;93.40;;;3.46;57.87;101858.31;4989142;28;20044;-47
2021/03/06 06:42:49;;;;;;;3.58;1.08;;;4.00;91.90;;;3.45;57.73;101859.22;4988924;28;20701;-46
2021/03/06 06:45:16;;;;;;;2.45;0.80;;;4.00;90.30;;;3.62;57.30;101877.38;4971779;28;20039;-44
2021/03/06 06:47:48;;;;;;;1.70;0.80;;;4.30;90.40;;;3.76;56.38;101873.38;4988875;28;20058;-44
2021/03/06 06:50:26;;;;;;;4.03;0.73;;;4.60;85.30;;;3.90;56.02;101873.59;4988702;28;20042;-44
2021/03/06 06:52:52;;;;;;;2.30;1.02;;;4.60;84.50;;;4.07;55.63;101878.84;4988989;28;20049;-42
2021/03/06 06:55:18;;;;;;;2.25;0.98;;;4.60;84.20;;;4.05;55.69;101897.88;4989087;28;20046;-43
2021/03/06 06:57:56;;;;;;;1.60;0.68;;;4.60;83.80;;;4.15;54.48;101897.41;4988901;28;20030;-45
2021/03/06 07:00:22;;;;;;;3.00;0.70;;;4.70;83.40;;;4.29;54.78;101910.50;4988868;28;20034;-46
2021/03/06 07:02:56;;;;;;;2.15;0.85;;;4.80;82.40;;;4.38;53.06;101908.41;4988666;28;20030;-43
2021/03/06 07:05:29;;;;;;;4.05;0.73;;;4.90;81.40;;;4.53;53.57;101911.13;4988883;28;20316;-43
2021/03/06 07:07:55;;;;;;;1.58;0.60;;;5.00;80.70;;;4.65;52.87;101910.56;4989005;28;20031;-44
2021/03/06 07:10:22;;;;;;;1.42;0.80;;;5.20;77.80;;;4.70;51.48;101901.78;4988737;28;20105;-44
2021/03/06 07:13:11;;;;;;;1.35;0.65;;;5.30;74.20;;;4.78;46.94;101909.97;4989083;28;20046;-43
2021/03/06 07:15:39;;;;;;;2.40;0.88;;;5.30;73.00;;;4.87;50.80;101915.56;4988660;28;20042;-44
2021/03/06 07:18:08;;;;;;;2.58;0.70;;;5.40;72.70;;;4.98;49.32;101909.88;4988641;28;20042;-46
2021/03/06 07:20:40;;;;;;;1.52;0.55;;;5.50;71.00;;;4.98;47.86;101912.47;4988610;28;20031;-45
2021/03/06 07:23:24;;;;;;;1.42;0.45;;;5.60;69.70;;;4.98;45.67;101922.78;4988629;28;20038;-47
2021/03/06 07:25:59;;;;;;;1.75;0.70;;;5.60;65.80;;;5.26;47.36;101932.63;4988371;28;20034;-46
2021/03/06 07:28:26;;;;;;;3.53;0.77;;;5.70;67.30;;;5.54;47.63;101932.94;4988969;28;20062;-41
2021/03/06 07:30:55;;;;;;;2.78;0.50;;;6.00;67.60;;;5.56;47.56;101931.13;4988658;28;20030;-41
2021/03/06 07:33:24;;;;;;;1.88;0.50;;;6.10;66.90;;;5.52;48.23;101929.59;4988668;28;20030;-45
2021/03/06 07:35:54;;;;;;;1.45;0.68;;;6.10;65.40;;;5.59;46.76;101938.72;4971323;28;20030;-45
2021/03/06 07:38:22;;;;;;;3.13;1.05;;;6.20;65.80;;;5.67;47.21;101948.69;4971267;28;20197;-45
2021/03/06 07:41:06;;;;;;;1.38;0.60;;;6.20;64.80;;;5.92;44.42;101958.66;4988538;28;20038;-45
2021/03/06 07:43:36;;;;;;;1.33;0.40;;;6.40;64.80;;;6.08;45.29;101951.78;4972685;28;20064;-44
2021/03/06 07:46:05;;;;;;;1.30;0.40;;;6.50;63.70;;;6.14;46.03;101967.00;4974564;28;20044;-42
2021/03/06 07:48:42;;;;;;;1.92;0.43;;;6.60;63.10;;;6.26;44.00;101966.31;4992192;28;20470;-45
2021/03/06 07:51:09;;;;;;;1.05;0.40;;;6.90;61.30;;;6.26;44.71;101965.50;4992213;28;20133;-43
2021/03/06 07:53:37;;;;;;;3.22;0.47;;;6.80;60.70;;;6.28;44.22;101969.66;4974564;28;20069;-43
2021/03/06 07:56:09;;;;;;;4.65;0.40;;;6.80;60.00;;;6.42;43.03;101968.94;4974206;28;20460;-44
2021/03/06 07:58:50;;;;;;;4.47;1.10;;;6.90;61.00;;;6.68;42.40;101975.31;4991893;28;20096;-44
2021/03/06 08:01:29;;;;;;;1.73;0.50;;;7.10;61.30;;;6.68;42.43;101980.50;4991552;28;20061;-45
2021/03/06 08:03:55;;;;;;;1.38;0.57;;;7.20;60.10;;;6.85;43.50;101982.19;4991572;28;20117;-46
2021/03/06 08:06:27;;;;;;;1.80;0.40;;;7.30;60.00;;;6.91;42.17;101982.69;4991602;28;20387;-45
2021/03/06 08:09:03;;;;;;;2.55;0.80;;;7.40;59.20;;;6.71;42.88;101989.84;4991885;28;20034;-43
2021/03/06 08:11:42;;;;;;;1.13;0.50;;;7.30;57.10;;;6.68;42.05;101982.25;4991711;28;20042;-44
2021/03/06 08:14:29;;;;;;;1.13;0.40;;;7.30;57.90;;;6.28;42.32;101990.38;4991679;28;20138;-43
2021/03/06 08:16:55;;;;;;;3.40;0.40;;;7.00;57.40;;;6.16;43.15;101998.78;4991395;28;20485;-45
2021/03/06 08:19:23;;;;;;;1.58;0.40;;;6.80;56.70;;;6.17;42.42;101992.69;4991525;28;20035;-44
2021/03/06 08:21:51;;;;;;;0.70;0.38;;;6.80;55.40;;;6.39;42.14;102010.53;4991209;28;20121;-42
2021/03/06 08:24:23;;;;;;;1.48;0.40;;;6.70;56.50;;;6.07;40.31;102001.03;4991359;28;20080;-48
2021/03/06 08:27:04;;;;;;;1.60;0.50;;;6.70;54.40;;;5.83;40.17;101990.13;4991487;28;20041;-42
2021/03/06 08:29:41;;;;;;;1.05;0.47;;;6.40;55.20;;;5.96;39.42;101998.97;4991087;28;20038;-44
2021/03/06 08:32:13;;;;;;;1.63;0.70;;;6.40;55.50;;;5.84;39.50;101997.81;4994042;23;20061;-43
2021/03/06 08:34:46;;;;;;;3.42;0.60;;;6.40;54.20;;;5.71;40.09;101995.91;4989513;28;20038;-46
2021/03/06 08:37:20;;;;;;;1.33;0.45;;;6.20;54.60;;;5.67;39.73;102008.16;4991232;28;20042;-46
2021/03/06 08:39:52;;;;;;;4.85;0.90;;;6.20;54.30;;;5.65;39.69;102018.59;4991172;28;20655;-46
2021/03/06 08:42:23;;;;;;;1.45;0.50;;;6.20;54.20;;;5.76;39.39;102006.84;4991121;28;20463;-41
2021/03/06 08:44:50;;;;;;;1.95;0.82;;;6.30;54.60;;;5.78;39.66;102018.78;4990799;28;20080;-44
2021/03/06 08:47:33;;;;;;;1.75;0.43;;;6.20;53.90;;;5.68;39.32;102013.22;4991105;28;20038;-44
2021/03/06 08:50:04;;;;;;;2.85;0.60;;;6.30;55.00;;;5.96;40.50;102006.72;4973773;28;20569;-47
2021/03/06 08:52:30;;;;;;;3.83;0.63;;;6.30;54.80;;;5.92;38.65;102007.81;4990896;28;20486;-44
2021/03/06 08:54:57;;;;;;;1.80;0.50;;;6.40;52.80;;;6.27;39.96;102006.81;4990408;28;20039;-45
2021/03/06 08:57:34;;;;;;;1.10;0.40;;;6.60;54.30;;;6.25;37.43;102023.34;4991096;28;20427;-44
2021/03/06 09:00:19;;;;;;;1.25;0.50;;;6.80;52.60;;;6.25;39.27;102008.66;4990536;28;20044;-44
2021/03/06 09:02:45;;;;;;;2.55;0.70;;;6.70;53.50;;;6.89;38.95;102009.59;4990704;28;20108;-43
2021/03/06 09:05:15;;;;;;;2.15;0.52;;;7.20;54.70;;;6.91;38.33;102000.81;4990788;28;20038;-44
2021/03/06 09:07:46;;;;;;;1.58;0.73;;;7.40;53.50;;;6.76;38.19;102017.19;4990202;28;20100;-46
2021/03/06 09:10:14;;;;;;;1.10;0.52;;;7.30;53.40;;;6.46;37.97;102008.47;4990528;28;20042;-43
2021/03/06 09:12:42;;;;;;;1.88;0.63;;;7.10;51.40;;;6.72;38.81;102007.91;4990604;28;20046;-44
2021/03/06 09:15:11;;;;;;;1.27;0.60;;;7.20;52.30;;;6.86;38.10;102009.75;4990301;28;20517;-44
2021/03/06 09:17:38;;;;;;;1.08;0.40;;;7.30;52.00;;;7.10;38.38;102005.81;4990316;28;20044;-45
2021/03/06 09:20:06;;;;;;;1.33;0.40;;;7.50;52.80;;;7.59;38.29;102006.47;4972769;28;20043;-42
2021/03/06 09:22:47;;;;;;;1.20;0.35;;;7.90;53.10;;;7.54;35.69;102011.13;4990107;28;20042;-43
2021/03/06 09:25:13;;;;;;;1.20;0.50;;;8.00;49.60;;;7.01;38.38;102019.31;4990232;28;20077;-43
2021/03/06 09:27:47;;;;;;;1.45;0.30;;;7.70;51.30;;;6.68;37.26;102001.22;4990190;28;20117;-47
2021/03/06 09:30:27;;;;;;;3.10;0.45;;;7.40;50.90;;;6.74;35.90;102011.25;4989978;28;20026;-49
2021/03/06 09:32:54;;;;;;;3.08;0.50;;;7.30;50.50;;;6.93;38.23;102001.56;4989866;28;20481;-43
2021/03/06 09:35:21;;;;;;;1.45;0.50;;;7.30;52.10;;;7.37;37.84;102013.81;4990139;28;20038;-44
2021/03/06 09:38:11;;;;;;;1.27;0.50;;;7.60;52.20;;;7.27;36.60;101997.09;4989819;28;20030;-45
2021/03/06 09:40:44;;;;;;;1.60;0.55;;;7.70;51.90;;;7.00;36.96;102007.25;4989724;28;20080;-46
2021/03/06 09:43:14;;;;;;;1.08;0.43;;;7.60;50.80;;;7.15;37.30;102024.53;4990076;28;20061;-45
2021/03/06 09:45:41;;;;;;;1.30;0.40;;;7.60;51.20;;;7.06;37.77;102016.47;4979180;28;20082;-44
2021/03/06 09:48:16;;;;;;;1.65;0.40;;;7.60;51.50;;;7.44;37.26;102015.16;4988250;28;20081;-52
2021/03/06 09:50:47;;;;;;;1.45;0.60;;;7.80;51.60;;;7.44;37.10;102012.56;4987234;28;20049;-46
2021/03/06 09:53:22;;;;;;;1.00;0.40;;;7.90;51.10;;;7.37;36.15;102011.22;4988445;28;20038;-51
2021/03/06 09:56:12;;;;;;;2.50;0.77;;;7.90;50.40;;;7.01;35.90;102008.94;4979001;28;20118;-44
2021/03/06 09:58:40;;;;;;;3.10;0.80;;;7.70;49.50;;;6.97;36.52;102016.03;4970198;28;20031;-43
2021/03/06 10:01:19;;;;;;;1.75;0.60;;;7.60;50.90;;;7.09;36.07;102019.69;4973679;28;20088;-43
2021/03/06 10:03:48;;;;;;;0.90;0.50;;;7.60;50.20;;;6.87;36.07;102011.44;4969876;28;20043;-49
2021/03/06 10:06:22;;;;;;;2.30;0.40;;;7.50;49.90;;;7.00;35.78;102009.84;4970598;28;20109;-48
2021/03/06 10:08:52;;;;;;;1.23;0.60;;;7.50;49.50;;;6.78;36.84;102010.16;4973363;28;20052;-48
2021/03/06 10:11:26;;;;;;;0.63;0.32;;;7.30;50.40;;;6.77;36.18;102005.91;4989934;28;20035;-45
2021/03/06 10:13:52;;;;;;;1.05;0.43;;;7.30;49.80;;;6.90;36.58;102022.47;4989248;28;20192;-44
2021/03/06 10:16:20;;;;;;;2.88;0.50;;;7.40;50.10;;;7.11;36.42;102033.41;4989442;28;20041;-45
2021/03/06 10:18:47;;;;;;;1.35;0.40;;;7.50;50.70;;;7.13;36.87;102020.34;4989133;28;20049;-46
2021/03/06 10:21:22;;;;;;;1.00;0.40;;;7.60;50.30;;;7.17;35.66;102014.09;4989116;28;20050;-48
2021/03/06 10:23:50;;;;;;;1.35;0.43;;;7.70;49.60;;;7.26;36.31;102044.69;4989216;28;20041;-44
2021/03/06 10:26:28;;;;;;;1.45;0.32;;;7.70;50.00;;;7.35;35.73;102009.63;4989140;28;20053;-43
2021/03/06 10:29:17;;;;;;;0.50;0.30;;;7.80;50.70;;;7.17;35.11;102034.81;4971886;28;20125;-47
2021/03/06 10:31:43;;;;;;;0.80;0.40;;;7.80;49.00;;;7.18;35.68;102018.34;4988884;28;20050;-45
2021/03/06 10:34:28;;;;;;;1.52;0.40;;;7.70;48.80;;;7.43;35.35;102010.88;4987488;28;20227;-43
2021/03/06 10:37:18;;;;;;;1.35;0.50;;;7.80;49.30;;;7.30;34.16;102015.09;4989478;28;20121;-46
2021/03/06 10:40:01;;;;;;;1.35;0.40;;;7.80;48.30;;;7.65;34.60;102016.50;4988991;28;20034;-44
2021/03/06 10:42:52;;;;;;;3.78;0.50;;;8.00;49.30;;;7.62;34.98;102016.69;4988862;28;20038;-43